Time;durP1;ratioP1;P1;durP2;ratioP2;P2;SDS_P1;SDS_P2;PMS_P1;PMS_P2;Temp;Humidity;BMP_temperature;BMP_pressure;BME280_temperature;BME280_humidity;BME280_pressure;Samples;Min_cycle;Max_cycle;Signal;HPM_P1;HPM_P2
2023/11/12 00:00:23;;;;;;;2.35;1.42;;;22.70;57.10;;;;;;6091902;23;92897;-91
2023/11/12 00:02:49;;;;;;;2.63;1.50;;;22.70;57.00;;;;;;6090746;23;92337;-91
2023/11/12 00:05:17;;;;;;;3.53;1.70;;;22.60;56.90;;;;;;6089559;23;92272;-91
2023/11/12 00:07:43;;;;;;;3.78;2.05;;;22.70;57.20;;;;;;6065115;23;93723;-91
2023/11/12 00:10:12;;;;;;;3.50;1.67;;;22.60;57.00;;;;;;6091283;23;96769;-91
2023/11/12 00:12:39;;;;;;;2.03;1.37;;;22.60;57.10;;;;;;6093458;23;92123;-92
2023/11/12 00:15:06;;;;;;;3.53;1.20;;;22.60;57.20;;;;;;6092327;23;92428;-90
2023/11/12 00:17:31;;;;;;;3.78;1.63;;;22.60;57.10;;;;;;6089586;23;92494;-92
2023/11/12 00:19:57;;;;;;;2.08;1.48;;;22.50;57.00;;;;;;6091405;23;93656;-91
2023/11/12 00:22:23;;;;;;;3.60;1.65;;;22.50;57.00;;;;;;6091491;23;92444;-91
2023/11/12 00:24:49;;;;;;;2.97;1.88;;;22.50;56.90;;;;;;6090819;23;92028;-90
2023/11/12 00:27:14;;;;;;;2.47;1.50;;;22.40;56.80;;;;;;6100740;23;93165;-92
2023/11/12 00:29:40;;;;;;;2.65;1.70;;;22.50;56.90;;;;;;6099504;23;93164;-90
2023/11/12 00:32:07;;;;;;;4.07;1.58;;;22.40;57.00;;;;;;6095331;23;93358;-91
2023/11/12 00:34:34;;;;;;;3.85;1.67;;;22.40;57.00;;;;;;6099616;23;91896;-92
2023/11/12 00:37:02;;;;;;;2.38;1.58;;;22.40;57.00;;;;;;6096490;23;93086;-90
2023/11/12 00:39:27;;;;;;;3.55;1.70;;;22.30;57.00;;;;;;6095715;23;93296;-92
2023/11/12 00:41:53;;;;;;;2.45;1.40;;;22.30;57.10;;;;;;6095687;23;91906;-91
2023/11/12 00:44:21;;;;;;;2.65;1.88;;;22.30;57.00;;;;;;6096953;23;92183;-90
2023/11/12 00:46:46;;;;;;;2.90;1.67;;;22.30;57.00;;;;;;6098053;23;93402;-91
2023/11/12 00:49:12;;;;;;;2.67;1.40;;;22.30;57.10;;;;;;6099276;23;92149;-92
2023/11/12 00:51:37;;;;;;;2.17;1.52;;;22.30;57.00;;;;;;6097517;23;92022;-90
2023/11/12 00:54:03;;;;;;;2.83;1.60;;;22.20;56.90;;;;;;6097632;23;91859;-91
2023/11/12 00:56:29;;;;;;;2.33;1.45;;;22.20;56.90;;;;;;6096399;23;95036;-91
2023/11/12 00:58:55;;;;;;;3.65;1.40;;;22.20;57.00;;;;;;6096653;23;95798;-92
2023/11/12 01:01:20;;;;;;;3.40;1.83;;;22.20;56.90;;;;;;6100975;23;92739;-92
2023/11/12 01:03:46;;;;;;;2.28;1.35;;;22.20;57.00;;;;;;6099808;23;92329;-91
2023/11/12 01:06:12;;;;;;;1.75;1.48;;;22.10;57.00;;;;;;6097080;23;94456;-92
2023/11/12 01:08:37;;;;;;;2.20;1.42;;;22.10;56.90;;;;;;6099697;23;95314;-90
2023/11/12 01:11:03;;;;;;;1.92;1.23;;;22.10;57.00;;;;;;6122373;23;92581;-92
2023/11/12 01:13:29;;;;;;;2.47;1.65;;;22.10;57.00;;;;;;6098323;23;91634;-91
2023/11/12 01:15:56;;;;;;;3.22;1.80;;;22.10;57.10;;;;;;6098353;23;93742;-91
2023/11/12 01:18:21;;;;;;;2.42;1.60;;;22.10;57.10;;;;;;6098032;23;93433;-90
2023/11/12 01:20:47;;;;;;;4.63;1.67;;;22.10;57.00;;;;;;6097576;23;93421;-90
2023/11/12 01:23:13;;;;;;;2.72;1.70;;;22.10;57.10;;;;;;6096288;23;92248;-91
2023/11/12 01:25:40;;;;;;;3.17;1.42;;;22.00;57.00;;;;;;6097730;23;92879;-91
2023/11/12 01:28:06;;;;;;;3.15;1.88;;;22.00;57.20;;;;;;6100243;23;93096;-91
2023/11/12 01:30:32;;;;;;;2.08;1.60;;;22.00;56.90;;;;;;6098113;23;92914;-92
2023/11/12 01:32:58;;;;;;;2.58;1.70;;;22.00;57.00;;;;;;6098543;23;91902;-92
2023/11/12 01:35:23;;;;;;;1.52;1.23;;;21.90;57.10;;;;;;6095993;23;96308;-90
2023/11/12 01:37:49;;;;;;;2.30;1.52;;;21.90;57.00;;;;;;6095655;23;93270;-90
2023/11/12 01:40:16;;;;;;;2.13;1.23;;;21.90;57.00;;;;;;6097517;23;92499;-90
2023/11/12 01:42:42;;;;;;;2.53;1.58;;;21.90;57.00;;;;;;6095149;23;92589;-92
2023/11/12 01:45:09;;;;;;;2.53;1.40;;;21.90;57.10;;;;;;6096310;23;94351;-90
2023/11/12 01:47:45;;;;;;;2.97;1.27;;;21.90;57.10;;;;;;6097034;23;93646;-93
2023/11/12 01:50:12;;;;;;;1.83;1.45;;;21.90;57.00;;;;;;6096458;23;92587;-91
2023/11/12 01:52:39;;;;;;;2.40;1.20;;;21.90;56.90;;;;;;6096805;23;92114;-92
2023/11/12 01:55:11;;;;;;;1.80;1.63;;;21.90;56.90;;;;;;6098008;23;92850;-91
2023/11/12 01:57:39;;;;;;;1.75;1.23;;;21.80;56.90;;;;;;6096190;23;92481;-91
2023/11/12 02:00:10;;;;;;;2.35;1.50;;;21.80;56.90;;;;;;6119366;22;92515;-94
2023/11/12 02:02:40;;;;;;;1.35;1.20;;;21.80;57.00;;;;;;6120942;22;92215;-92
2023/11/12 02:05:08;;;;;;;1.60;1.23;;;21.80;57.00;;;;;;6097576;23;92745;-89
2023/11/12 02:07:41;;;;;;;1.65;1.27;;;21.80;57.00;;;;;;6098218;23;93704;-91
2023/11/12 02:10:09;;;;;;;3.20;1.63;;;21.80;56.90;;;;;;6097204;23;92853;-92
2023/11/12 02:12:43;;;;;;;1.63;1.48;;;21.80;57.60;;;;;;6122737;23;92463;-91
2023/11/12 02:15:10;;;;;;;1.88;1.20;;;21.80;57.00;;;;;;6099697;23;92543;-90
2023/11/12 02:17:36;;;;;;;2.30;1.35;;;21.80;57.00;;;;;;6095605;23;94594;-91
2023/11/12 02:20:10;;;;;;;2.60;1.50;;;21.80;57.00;;;;;;6122052;23;92576;-92
2023/11/12 02:22:37;;;;;;;2.17;1.60;;;21.70;56.90;;;;;;6097343;23;92298;-90
2023/11/12 02:25:04;;;;;;;2.50;1.67;;;21.70;56.90;;;;;;6099682;23;92176;-90
2023/11/12 02:27:30;;;;;;;1.58;1.17;;;21.70;56.90;;;;;;6120712;23;93282;-90
2023/11/12 02:29:56;;;;;;;2.00;1.20;;;21.70;57.10;;;;;;6092977;23;92281;-93
2023/11/12 02:32:21;;;;;;;3.20;1.48;;;21.70;57.10;;;;;;6094507;23;92697;-91
2023/11/12 02:34:48;;;;;;;1.52;1.30;;;21.60;57.10;;;;;;6091888;23;94906;-91
2023/11/12 02:37:14;;;;;;;1.35;1.00;;;21.60;57.10;;;;;;6094487;23;95672;-92
2023/11/12 02:39:42;;;;;;;1.65;1.30;;;21.60;57.20;;;;;;6095340;23;91834;-91
2023/11/12 02:42:09;;;;;;;1.70;1.30;;;21.60;57.10;;;;;;6094728;23;92223;-90
2023/11/12 02:44:38;;;;;;;1.58;1.30;;;21.60;57.10;;;;;;6093520;23;94878;-90
2023/11/12 02:47:06;;;;;;;1.25;1.10;;;21.60;57.00;;;;;;6092399;23;94521;-90
2023/11/12 02:49:34;;;;;;;2.30;1.50;;;21.60;57.10;;;;;;6096397;23;92455;-91
2023/11/12 02:52:00;;;;;;;2.20;1.20;;;21.60;57.20;;;;;;6096018;23;91676;-91
2023/11/12 02:54:25;;;;;;;2.17;1.27;;;21.60;57.20;;;;;;6093735;23;94092;-90
2023/11/12 02:56:51;;;;;;;1.50;1.20;;;21.60;57.00;;;;;;6093380;23;94140;-91
2023/11/12 02:59:17;;;;;;;2.05;1.23;;;21.50;57.00;;;;;;6093096;23;93164;-91
2023/11/12 03:01:43;;;;;;;2.08;1.20;;;21.50;57.00;;;;;;6093507;23;92824;-92
2023/11/12 03:04:09;;;;;;;1.45;1.05;;;21.50;57.00;;;;;;6092954;23;93874;-92
2023/11/12 03:06:35;;;;;;;1.67;1.27;;;21.50;56.80;;;;;;6092684;23;93681;-91
2023/11/12 03:09:01;;;;;;;1.08;1.00;;;21.50;57.00;;;;;;6093875;23;92377;-91
2023/11/12 03:11:27;;;;;;;1.73;1.45;;;21.50;57.00;;;;;;6119201;23;92663;-92
2023/11/12 03:13:53;;;;;;;1.55;1.10;;;21.50;57.00;;;;;;6093807;23;93519;-92
2023/11/12 03:16:20;;;;;;;1.70;1.10;;;21.50;57.00;;;;;;6096538;23;93963;-91
2023/11/12 03:18:48;;;;;;;1.92;1.30;;;21.50;57.00;;;;;;6097221;23;92379;-90
2023/11/12 03:21:14;;;;;;;1.60;1.17;;;21.50;57.00;;;;;;6099609;23;92103;-90
2023/11/12 03:23:40;;;;;;;2.00;1.52;;;21.50;56.80;;;;;;6100471;23;95854;-92
2023/11/12 03:26:06;;;;;;;2.30;1.35;;;21.50;57.00;;;;;;6099755;23;95473;-92
2023/11/12 03:28:32;;;;;;;1.60;1.30;;;21.50;57.50;;;;;;6101937;23;91961;-92
2023/11/12 03:30:58;;;;;;;1.80;1.08;;;21.40;57.10;;;;;;6100578;23;92261;-91
2023/11/12 03:33:23;;;;;;;1.35;1.05;;;21.40;56.90;;;;;;6097770;23;93089;-91
2023/11/12 03:35:50;;;;;;;1.30;1.10;;;21.40;56.90;;;;;;6093707;23;93180;-92
2023/11/12 03:38:16;;;;;;;1.23;0.93;;;21.40;56.90;;;;;;6093486;23;92419;-93
2023/11/12 03:40:41;;;;;;;1.33;1.00;;;21.40;56.90;;;;;;6095831;23;91713;-91
2023/11/12 03:43:07;;;;;;;1.77;1.30;;;21.30;56.90;;;;;;6097330;23;96364;-92
2023/11/12 03:45:33;;;;;;;1.67;1.20;;;21.30;56.90;;;;;;6107468;23;93264;-90
2023/11/12 03:47:58;;;;;;;1.95;1.20;;;21.30;56.90;;;;;;6110891;23;92781;-89
2023/11/12 03:50:24;;;;;;;2.25;1.33;;;21.30;56.90;;;;;;6112429;23;92706;-89
2023/11/12 03:52:51;;;;;;;2.35;1.20;;;21.40;56.90;;;;;;6113603;23;93239;-91
2023/11/12 03:55:17;;;;;;;1.60;1.00;;;21.30;57.10;;;;;;6113710;23;92752;-92
2023/11/12 03:57:43;;;;;;;1.38;1.10;;;21.30;57.00;;;;;;6097422;23;91798;-92
2023/11/12 04:00:10;;;;;;;1.25;1.02;;;21.30;56.90;;;;;;6099813;23;91782;-93
2023/11/12 04:02:36;;;;;;;1.90;1.38;;;21.30;56.90;;;;;;6097899;23;94033;-91
2023/11/12 04:05:03;;;;;;;1.40;1.10;;;21.30;57.00;;;;;;6098213;23;92920;-90
2023/11/12 04:07:28;;;;;;;1.92;1.30;;;21.30;56.90;;;;;;6073272;23;92350;-90
2023/11/12 04:09:54;;;;;;;1.20;1.10;;;21.30;56.90;;;;;;6094832;23;92541;-91
2023/11/12 04:12:20;;;;;;;2.55;1.10;;;21.30;57.00;;;;;;6095021;23;94769;-91
2023/11/12 04:14:46;;;;;;;1.25;0.95;;;21.30;56.90;;;;;;6095383;23;98903;-93
2023/11/12 04:17:11;;;;;;;1.73;1.27;;;21.20;56.90;;;;;;6094559;23;93215;-90
2023/11/12 04:19:39;;;;;;;1.58;1.20;;;21.20;57.10;;;;;;6094902;23;92508;-91
2023/11/12 04:22:04;;;;;;;1.92;1.25;;;21.20;57.10;;;;;;6094424;23;93502;-93
2023/11/12 04:24:30;;;;;;;1.20;1.08;;;21.20;57.00;;;;;;6091454;23;94794;-91
2023/11/12 04:26:56;;;;;;;0.93;0.88;;;21.20;57.10;;;;;;6094887;23;92656;-89
2023/11/12 04:29:23;;;;;;;1.02;1.00;;;21.20;56.80;;;;;;6094772;23;91232;-91
2023/11/12 04:31:49;;;;;;;1.10;0.98;;;21.20;56.80;;;;;;6093085;23;96929;-91
2023/11/12 04:34:15;;;;;;;1.67;1.30;;;21.20;56.90;;;;;;6094100;23;93869;-91
2023/11/12 04:36:40;;;;;;;1.23;1.00;;;21.20;56.90;;;;;;6093891;23;92869;-91
2023/11/12 04:39:18;;;;;;;1.83;0.90;;;21.20;56.80;;;;;;6093840;23;92219;-92
2023/11/12 04:41:44;;;;;;;1.48;1.10;;;21.10;56.80;;;;;;6093677;23;93885;-90
2023/11/12 04:44:10;;;;;;;0.80;0.80;;;21.10;57.00;;;;;;6092227;23;94300;-92
2023/11/12 04:46:37;;;;;;;0.82;0.77;;;21.10;56.80;;;;;;6094385;23;92363;-92
2023/11/12 04:49:03;;;;;;;0.75;0.75;;;21.10;56.80;;;;;;6068019;23;92564;-91
2023/11/12 04:51:31;;;;;;;1.25;1.00;;;21.10;56.70;;;;;;6090904;23;96313;-90
2023/11/12 04:53:57;;;;;;;1.10;0.93;;;21.10;56.70;;;;;;6090522;23;94674;-91
2023/11/12 04:56:23;;;;;;;1.23;1.10;;;21.10;56.80;;;;;;6114829;22;92750;-92
2023/11/12 04:58:49;;;;;;;1.38;1.00;;;21.10;56.70;;;;;;6089772;23;92759;-90
2023/11/12 05:01:15;;;;;;;0.70;0.70;;;21.10;56.80;;;;;;6091207;23;96459;-92
2023/11/12 05:03:40;;;;;;;2.80;1.17;;;21.10;56.60;;;;;;6089702;23;95440;-91
2023/11/12 05:06:07;;;;;;;1.60;1.15;;;21.10;56.70;;;;;;6090311;23;95813;-92
2023/11/12 05:08:33;;;;;;;1.75;1.00;;;21.10;56.70;;;;;;6090953;23;92305;-90
2023/11/12 05:10:59;;;;;;;2.17;1.40;;;21.10;56.70;;;;;;6090773;23;92704;-90
2023/11/12 05:13:25;;;;;;;1.25;1.10;;;21.10;56.80;;;;;;6093396;23;92401;-90
2023/11/12 05:15:53;;;;;;;1.45;1.10;;;21.00;56.50;;;;;;6091863;23;92101;-90
2023/11/12 05:18:19;;;;;;;1.90;1.20;;;21.00;56.70;;;;;;6090957;23;91675;-92
2023/11/12 05:20:44;;;;;;;0.82;0.80;;;21.00;56.70;;;;;;6089455;23;96235;-89
2023/11/12 05:23:10;;;;;;;1.58;1.10;;;21.00;56.80;;;;;;6088672;23;96471;-90
2023/11/12 05:25:36;;;;;;;1.20;0.95;;;21.00;56.60;;;;;;6115743;22;93361;-90
2023/11/12 05:28:04;;;;;;;1.05;0.95;;;21.00;56.60;;;;;;6091352;23;92413;-90
2023/11/12 05:30:31;;;;;;;0.85;0.82;;;21.00;56.70;;;;;;6090071;23;95079;-91
2023/11/12 05:32:57;;;;;;;2.63;0.90;;;21.00;56.70;;;;;;6113037;22;93999;-91
2023/11/12 05:35:23;;;;;;;0.75;0.63;;;21.00;56.80;;;;;;6091873;23;92434;-90
2023/11/12 05:37:48;;;;;;;1.20;1.02;;;21.00;56.60;;;;;;6076391;23;92253;-91
2023/11/12 05:40:14;;;;;;;1.48;1.17;;;21.00;57.30;;;;;;6112461;22;93800;-90
2023/11/12 05:42:40;;;;;;;1.15;1.05;;;20.90;56.50;;;;;;6091436;23;93668;-90
2023/11/12 05:45:06;;;;;;;2.25;1.10;;;20.90;56.60;;;;;;6090180;23;92615;-91
2023/11/12 05:47:32;;;;;;;1.58;1.13;;;20.90;56.50;;;;;;6091243;23;92232;-91
2023/11/12 05:49:58;;;;;;;1.52;1.30;;;20.90;56.40;;;;;;6089077;23;94868;-90
2023/11/12 05:52:24;;;;;;;1.77;1.17;;;20.90;56.60;;;;;;6065190;23;97608;-91
2023/11/12 05:54:49;;;;;;;1.13;0.70;;;20.90;56.50;;;;;;6091730;23;92590;-91
2023/11/12 05:57:15;;;;;;;1.13;1.00;;;20.90;56.50;;;;;;6092191;23;92546;-92
2023/11/12 05:59:40;;;;;;;1.63;1.20;;;20.90;56.70;;;;;;6089994;23;94834;-92
2023/11/12 06:02:06;;;;;;;1.05;0.70;;;20.90;56.60;;;;;;6095316;23;94037;-91
2023/11/12 06:04:32;;;;;;;0.65;0.65;;;20.90;56.50;;;;;;6093723;23;92220;-91
2023/11/12 06:06:57;;;;;;;1.20;0.98;;;20.90;56.50;;;;;;6094672;23;91606;-89
2023/11/12 06:09:23;;;;;;;3.92;1.58;;;20.90;56.40;;;;;;6092187;23;93556;-92
2023/11/12 06:11:49;;;;;;;3.13;1.38;;;20.90;56.00;;;;;;6091374;23;93607;-90
2023/11/12 06:14:15;;;;;;;4.30;2.03;;;20.90;56.20;;;;;;6089023;23;93248;-90
2023/11/12 06:16:41;;;;;;;3.10;1.27;;;20.90;56.30;;;;;;6091504;23;91982;-90
2023/11/12 06:19:07;;;;;;;6.70;1.58;;;21.00;56.40;;;;;;6092799;23;95690;-91
2023/11/12 06:21:32;;;;;;;3.58;1.60;;;21.00;56.40;;;;;;6088021;23;94324;-89
2023/11/12 06:23:58;;;;;;;6.50;1.35;;;21.00;56.70;;;;;;6089906;23;92207;-89
2023/11/12 06:26:24;;;;;;;4.93;1.70;;;21.10;56.50;;;;;;6087774;23;92235;-89
2023/11/12 06:28:50;;;;;;;3.60;1.75;;;21.10;56.70;;;;;;6090390;23;94978;-89
2023/11/12 06:31:16;;;;;;;2.95;1.52;;;21.10;56.50;;;;;;6090076;23;95296;-88
2023/11/12 06:33:45;;;;;;;3.60;1.63;;;21.10;56.40;;;;;;6091068;23;92008;-90
2023/11/12 06:36:13;;;;;;;2.40;1.45;;;21.20;56.50;;;;;;6113707;23;92347;-89
2023/11/12 06:38:41;;;;;;;2.53;1.23;;;21.20;56.60;;;;;;6112397;22;94885;-88
2023/11/12 06:41:08;;;;;;;3.17;1.50;;;21.20;56.50;;;;;;6088438;23;94245;-90
2023/11/12 06:43:34;;;;;;;4.47;1.58;;;21.20;56.50;;;;;;6091674;23;92195;-89
2023/11/12 06:45:59;;;;;;;4.00;1.40;;;21.20;56.60;;;;;;6088704;23;92439;-90
2023/11/12 06:48:25;;;;;;;2.88;1.27;;;21.20;56.50;;;;;;6088959;23;94588;-89
2023/11/12 06:50:50;;;;;;;1.95;1.45;;;21.20;56.50;;;;;;6088835;23;94701;-91
2023/11/12 06:53:25;;;;;;;3.25;1.42;;;21.20;56.50;;;;;;6090960;23;92189;-90
2023/11/12 06:55:52;;;;;;;3.65;1.42;;;21.20;56.50;;;;;;6090666;23;92075;-90
2023/11/12 06:58:17;;;;;;;2.28;1.52;;;21.20;56.50;;;;;;6088356;23;96255;-88
2023/11/12 07:00:43;;;;;;;3.88;1.52;;;21.20;56.40;;;;;;6089449;23;94933;-90
2023/11/12 07:03:12;;;;;;;3.78;1.33;;;21.20;56.50;;;;;;6089220;23;93390;-90
2023/11/12 07:05:38;;;;;;;4.05;1.60;;;21.20;56.50;;;;;;6085426;23;92944;-90
2023/11/12 07:08:04;;;;;;;4.00;1.52;;;21.20;56.50;;;;;;6090191;23;95340;-88
2023/11/12 07:10:31;;;;;;;2.88;1.25;;;21.20;56.10;;;;;;6090438;23;96849;-89
2023/11/12 07:12:57;;;;;;;2.58;1.33;;;21.20;56.10;;;;;;6091954;23;93121;-89
2023/11/12 07:15:23;;;;;;;2.83;1.40;;;21.20;56.20;;;;;;6091700;23;92368;-91
2023/11/12 07:17:49;;;;;;;2.25;0.98;;;21.20;56.00;;;;;;6094495;23;95521;-88
2023/11/12 07:20:16;;;;;;;3.25;1.48;;;21.20;56.10;;;;;;6089522;23;92647;-88
2023/11/12 07:22:42;;;;;;;9.60;1.80;;;21.20;56.10;;;;;;6086458;23;91976;-90
2023/11/12 07:25:09;;;;;;;5.95;2.15;;;21.20;56.20;;;;;;6089305;23;92607;-89
2023/11/12 07:27:36;;;;;;;5.32;1.70;;;21.20;56.40;;;;;;6085655;23;95014;-88
2023/11/12 07:30:02;;;;;;;9.68;2.10;;;21.20;56.60;;;;;;6088628;23;95606;-89
2023/11/12 07:32:28;;;;;;;6.63;2.13;;;21.20;56.50;;;;;;6088509;23;92432;-88
2023/11/12 07:34:54;;;;;;;3.40;1.70;;;21.20;56.80;;;;;;6087583;23;91920;-89
2023/11/12 07:37:20;;;;;;;6.95;2.08;;;21.20;56.50;;;;;;6091135;23;94354;-90
2023/11/12 07:39:45;;;;;;;7.07;1.90;;;21.20;56.50;;;;;;6087272;23;94644;-88
2023/11/12 07:42:11;;;;;;;5.50;2.70;;;21.20;56.40;;;;;;6088683;23;92611;-89
2023/11/12 07:44:36;;;;;;;4.70;1.77;;;21.30;56.50;;;;;;6111936;23;91960;-88
2023/11/12 07:47:04;;;;;;;11.75;2.97;;;21.30;56.40;;;;;;6088422;23;94962;-90
2023/11/12 07:49:31;;;;;;;6.93;2.72;;;21.30;56.30;;;;;;6089824;23;93428;-89
2023/11/12 07:51:56;;;;;;;9.18;2.63;;;21.30;56.40;;;;;;6088367;23;93285;-89
2023/11/12 07:54:23;;;;;;;6.00;2.42;;;21.30;56.50;;;;;;6089947;23;92269;-89
2023/11/12 07:56:54;;;;;;;6.05;2.22;;;21.40;56.40;;;;;;6088928;23;92923;-89
2023/11/12 07:59:20;;;;;;;7.15;2.60;;;21.40;56.60;;;;;;6089551;23;94482;-87
2023/11/12 08:01:49;;;;;;;5.15;2.47;;;21.40;56.00;;;;;;6079099;22;92017;-87
2023/11/12 08:04:15;;;;;;;6.05;2.88;;;21.30;55.70;;;;;;6090669;23;92447;-89
2023/11/12 08:06:45;;;;;;;12.23;2.67;;;21.30;55.60;;;;;;6091004;23;93516;-87
2023/11/12 08:09:11;;;;;;;9.18;2.83;;;21.30;53.50;;;;;;6088099;23;94599;-88
2023/11/12 08:11:45;;;;;;;10.50;3.05;;;21.30;54.50;;;;;;6083358;23;93055;-89
2023/11/12 08:14:14;;;;;;;11.48;3.00;;;21.30;54.40;;;;;;6069132;23;92298;-88
2023/11/12 08:16:46;;;;;;;6.47;3.00;;;21.30;54.00;;;;;;6068473;23;93638;-90
2023/11/12 08:19:13;;;;;;;10.73;3.42;;;21.30;54.10;;;;;;6060152;23;101202;-88
2023/11/12 08:21:39;;;;;;;7.80;3.15;;;21.30;53.70;;;;;;6087777;23;92226;-87
2023/11/12 08:24:05;;;;;;;8.73;2.97;;;21.30;53.70;;;;;;6088699;23;92307;-88
2023/11/12 08:26:34;;;;;;;9.00;2.90;;;21.30;54.10;;;;;;6082734;23;95024;-88
2023/11/12 08:29:00;;;;;;;8.48;2.95;;;21.30;54.50;;;;;;6088747;23;94207;-89
2023/11/12 08:31:26;;;;;;;9.35;2.28;;;21.30;55.10;;;;;;6086337;23;92202;-88
2023/11/12 08:33:52;;;;;;;6.65;2.58;;;21.30;55.00;;;;;;6091276;23;91169;-90
2023/11/12 08:36:18;;;;;;;8.52;2.95;;;21.40;55.20;;;;;;6089724;23;93782;-87
2023/11/12 08:38:44;;;;;;;9.48;2.88;;;21.40;55.50;;;;;;6087603;23;94518;-87
2023/11/12 08:41:11;;;;;;;7.07;3.13;;;21.40;55.50;;;;;;6088485;23;93326;-89
2023/11/12 08:43:37;;;;;;;8.60;2.63;;;21.40;55.60;;;;;;6087582;23;92803;-86
2023/11/12 08:46:03;;;;;;;7.18;3.08;;;21.40;55.80;;;;;;6091997;23;93128;-89
2023/11/12 08:48:32;;;;;;;8.15;3.08;;;21.40;56.20;;;;;;6088610;23;93871;-88
2023/11/12 08:50:59;;;;;;;7.22;2.97;;;21.40;56.60;;;;;;6091752;23;92357;-88
2023/11/12 08:53:27;;;;;;;13.18;5.35;;;21.40;56.70;;;;;;6091595;23;92089;-87
2023/11/12 08:55:53;;;;;;;16.35;4.70;;;21.40;56.50;;;;;;6090537;23;93760;-90
2023/11/12 08:58:21;;;;;;;9.02;4.38;;;21.40;56.00;;;;;;6091925;23;93953;-89
2023/11/12 09:00:47;;;;;;;12.25;5.15;;;21.40;56.10;;;;;;6082573;23;92925;-89
2023/11/12 09:03:12;;;;;;;16.08;5.15;;;21.40;54.30;;;;;;6083089;23;92211;-91
2023/11/12 09:05:38;;;;;;;10.30;3.92;;;21.40;53.50;;;;;;6084502;23;94606;-89
2023/11/12 09:08:04;;;;;;;12.68;4.93;;;21.40;53.30;;;;;;6083506;23;94336;-89
2023/11/12 09:10:29;;;;;;;15.00;6.00;;;21.40;54.10;;;;;;6087111;23;92410;-87
2023/11/12 09:12:55;;;;;;;12.25;4.50;;;21.40;53.50;;;;;;6082755;23;92580;-88
2023/11/12 09:15:21;;;;;;;14.82;5.40;;;21.40;53.60;;;;;;6081916;23;94214;-87
2023/11/12 09:17:47;;;;;;;14.25;4.72;;;21.40;54.00;;;;;;6084620;23;92792;-87
2023/11/12 09:20:15;;;;;;;15.02;5.05;;;21.40;55.00;;;;;;6085042;23;92030;-86
2023/11/12 09:22:43;;;;;;;13.15;4.43;;;21.40;55.60;;;;;;6085495;23;91531;-89
2023/11/12 09:25:10;;;;;;;13.80;5.80;;;21.30;55.60;;;;;;6083779;23;95734;-89
2023/11/12 09:27:36;;;;;;;12.57;4.68;;;21.30;55.20;;;;;;6070133;23;93830;-87
2023/11/12 09:30:03;;;;;;;10.55;4.63;;;21.40;54.60;;;;;;6084250;23;93298;-87
2023/11/12 09:32:32;;;;;;;11.48;4.15;;;21.40;54.50;;;;;;6081765;23;92905;-89
2023/11/12 09:35:00;;;;;;;9.63;3.65;;;21.40;54.20;;;;;;6083316;23;94181;-89
2023/11/12 09:37:26;;;;;;;11.70;3.53;;;21.40;53.70;;;;;;6085097;23;94896;-88
2023/11/12 09:39:53;;;;;;;13.48;3.97;;;21.40;52.50;;;;;;6085647;23;92339;-87
2023/11/12 09:42:25;;;;;;;8.10;3.25;;;21.40;51.60;;;;;;6084625;23;92626;-88
2023/11/12 09:44:54;;;;;;;6.95;3.58;;;21.40;52.00;;;;;;6108111;23;91895;-89
2023/11/12 09:47:29;;;;;;;7.30;3.58;;;21.40;51.80;;;;;;6086900;23;93367;-88
2023/11/12 09:49:55;;;;;;;6.13;2.78;;;21.40;52.20;;;;;;6106169;22;92589;-87
2023/11/12 09:52:22;;;;;;;8.13;3.10;;;21.50;52.40;;;;;;6088304;23;92777;-89
2023/11/12 09:54:49;;;;;;;8.27;3.00;;;21.50;52.80;;;;;;6082666;23;96011;-89
2023/11/12 09:57:17;;;;;;;10.63;2.97;;;21.50;53.10;;;;;;6108314;23;96789;-89
2023/11/12 09:59:42;;;;;;;8.40;3.10;;;21.50;53.00;;;;;;6083947;23;92806;-90
2023/11/12 10:02:10;;;;;;;6.40;2.60;;;21.50;53.70;;;;;;6085099;23;92650;-90
2023/11/12 10:04:36;;;;;;;6.72;2.80;;;21.60;53.10;;;;;;6087876;23;93065;-89
2023/11/12 10:07:03;;;;;;;9.52;2.75;;;21.60;53.00;;;;;;6086350;23;96334;-87
2023/11/12 10:09:30;;;;;;;5.28;2.83;;;21.60;53.20;;;;;;6086643;23;92540;-87
2023/11/12 10:12:06;;;;;;;4.20;2.30;;;21.60;53.30;;;;;;6085631;23;91377;-89
2023/11/12 10:14:32;;;;;;;4.55;2.30;;;21.60;53.60;;;;;;6112507;23;93699;-90
2023/11/12 10:17:10;;;;;;;7.43;2.67;;;21.60;53.10;;;;;;6092675;23;94631;-90
2023/11/12 10:19:37;;;;;;;7.82;3.10;;;21.60;53.90;;;;;;6120965;22;93201;-92
2023/11/12 10:22:07;;;;;;;6.57;2.33;;;21.70;54.20;;;;;;6096274;23;92422;-91
2023/11/12 10:24:57;;;;;;;5.75;2.83;;;21.70;54.10;;;;;;6095185;23;93950;-91
2023/11/12 10:27:23;;;;;;;7.05;2.33;;;21.70;54.90;;;;;;6093912;23;93299;-90
2023/11/12 10:29:49;;;;;;;8.88;3.17;;;21.70;54.00;;;;;;6095326;23;92519;-89
2023/11/12 10:32:25;;;;;;;6.00;2.75;;;21.70;53.80;;;;;;6093614;23;92165;-90
2023/11/12 10:34:51;;;;;;;5.93;2.80;;;21.70;53.60;;;;;;6093714;23;93212;-90
2023/11/12 10:37:19;;;;;;;6.25;2.63;;;21.70;53.80;;;;;;6107705;23;92363;-89
2023/11/12 10:39:46;;;;;;;4.45;2.28;;;21.70;53.70;;;;;;6105409;23;92304;-90
2023/11/12 10:42:24;;;;;;;5.13;2.13;;;21.60;53.90;;;;;;6119654;23;91816;-86
2023/11/12 10:44:57;;;;;;;5.88;2.72;;;21.70;53.90;;;;;;6095568;23;94615;-87
2023/11/12 10:47:24;;;;;;;6.43;2.38;;;21.70;54.30;;;;;;6095598;23;94131;-88
2023/11/12 10:49:52;;;;;;;5.68;2.65;;;21.70;54.20;;;;;;6092754;23;92305;-87
2023/11/12 10:52:22;;;;;;;5.82;2.40;;;21.70;53.90;;;;;;6091110;23;92311;-88
2023/11/12 10:54:50;;;;;;;3.40;2.20;;;21.70;53.90;;;;;;6113411;23;94834;-88
2023/11/12 10:57:25;;;;;;;4.63;2.22;;;21.70;54.10;;;;;;6089762;23;93577;-87
2023/11/12 10:59:53;;;;;;;3.92;2.03;;;21.70;54.60;;;;;;6107145;23;92595;-88
2023/11/12 11:02:21;;;;;;;3.50;2.50;;;21.80;54.80;;;;;;6112515;23;90831;-87
2023/11/12 11:04:47;;;;;;;5.22;2.80;;;21.70;55.20;;;;;;6110336;23;94754;-88
2023/11/12 11:07:16;;;;;;;4.10;2.15;;;21.80;55.30;;;;;;6113641;23;91969;-86
2023/11/12 11:09:45;;;;;;;10.80;2.53;;;21.70;55.60;;;;;;6110207;23;92418;-86
2023/11/12 11:12:13;;;;;;;3.90;2.50;;;21.70;55.60;;;;;;6114206;23;91547;-88
2023/11/12 11:14:38;;;;;;;6.15;2.20;;;21.70;55.80;;;;;;6096558;23;93025;-87
2023/11/12 11:17:05;;;;;;;5.25;2.00;;;21.70;56.00;;;;;;6094603;23;93460;-87
2023/11/12 11:19:43;;;;;;;5.90;2.35;;;21.70;56.10;;;;;;6095450;23;92067;-85
2023/11/12 11:22:26;;;;;;;6.10;2.05;;;21.70;56.20;;;;;;6091769;23;92555;-89
2023/11/12 11:24:52;;;;;;;4.63;2.63;;;21.70;56.00;;;;;;6091419;23;94467;-89
2023/11/12 11:27:21;;;;;;;9.18;2.63;;;21.80;55.50;;;;;;6088114;23;93295;-87
2023/11/12 11:30:11;;;;;;;2.85;2.08;;;21.80;55.40;;;;;;6088331;23;92498;-86
2023/11/12 11:32:37;;;;;;;3.92;2.28;;;21.80;52.60;;;;;;6087172;23;92388;-85
2023/11/12 11:35:16;;;;;;;2.50;1.38;;;21.70;51.80;;;;;;6089327;23;96409;-87
2023/11/12 11:38:00;;;;;;;;;;;21.70;52.30;;;;;;6116971;23;94918;-89
2023/11/12 11:40:30;;;;;;;5.07;2.20;;;21.70;53.60;;;;;;6088966;23;92276;-87
2023/11/12 11:43:23;;;;;;;9.48;2.60;;;21.70;54.00;;;;;;6085794;23;92493;-87
2023/11/12 11:46:12;;;;;;;6.22;2.65;;;21.70;54.20;;;;;;6088434;23;94777;-89
2023/11/12 11:48:47;;;;;;;5.53;2.75;;;21.70;54.90;;;;;;6087354;23;93729;-90
2023/11/12 11:51:36;;;;;;;6.15;2.30;;;21.70;55.30;;;;;;6087842;23;92690;-92
2023/11/12 11:54:12;;;;;;;6.30;2.47;;;21.70;54.80;;;;;;6089192;23;91827;-90
2023/11/12 11:56:38;;;;;;;5.55;2.33;;;21.70;55.10;;;;;;6089518;23;95604;-90
2023/11/12 11:59:03;;;;;;;6.20;2.30;;;21.60;55.90;;;;;;6054203;23;95496;-89
2023/11/12 12:01:29;;;;;;;7.65;2.30;;;21.70;55.30;;;;;;6088804;23;93113;-91
2023/11/12 12:04:05;;;;;;;6.38;2.53;;;21.70;55.50;;;;;;6091364;23;92258;-87
2023/11/12 12:06:33;;;;;;;7.07;2.40;;;21.70;55.50;;;;;;6087994;22;93588;-88
2023/11/12 12:08:59;;;;;;;5.78;2.58;;;21.80;55.00;;;;;;6086019;23;93956;-90
2023/11/12 12:11:26;;;;;;;3.47;1.73;;;21.80;55.30;;;;;;6085108;23;92782;-87
2023/11/12 12:14:10;;;;;;;4.47;2.10;;;21.80;55.30;;;;;;6039707;23;92596;-88
2023/11/12 12:16:43;;;;;;;11.57;2.53;;;21.80;55.30;;;;;;6087566;23;93117;-88
2023/11/12 12:19:15;;;;;;;3.28;1.67;;;21.80;55.40;;;;;;6088115;23;97666;-90
2023/11/12 12:21:49;;;;;;;5.90;2.30;;;21.80;55.50;;;;;;6086971;23;92616;-88
2023/11/12 12:24:16;;;;;;;6.25;2.15;;;21.80;55.30;;;;;;6112147;23;92561;-89
2023/11/12 12:26:43;;;;;;;8.02;2.42;;;21.80;54.70;;;;;;6087603;23;94938;-89
2023/11/12 12:29:24;;;;;;;4.57;2.35;;;21.80;54.80;;;;;;6113662;23;94505;-90
2023/11/12 12:31:56;;;;;;;7.07;2.40;;;21.90;55.00;;;;;;6067253;23;92445;-90
2023/11/12 12:34:24;;;;;;;4.45;2.10;;;21.80;55.10;;;;;;6113374;22;92388;-88
2023/11/12 12:36:53;;;;;;;5.10;2.30;;;21.80;55.20;;;;;;6063221;23;93163;-89
2023/11/12 12:39:23;;;;;;;6.80;2.60;;;21.80;55.30;;;;;;6086800;23;94559;-89
2023/11/12 12:42:01;;;;;;;4.90;2.20;;;21.80;55.20;;;;;;6085034;23;92705;-88
2023/11/12 12:44:53;;;;;;;6.30;2.20;;;21.80;55.30;;;;;;6085339;23;92179;-88
2023/11/12 12:47:34;;;;;;;7.38;2.70;;;21.80;55.30;;;;;;6085590;23;94505;-90